createdAt,value
2022-08-07T00:00:03.024Z,978.6
2022-08-07T00:05:00.255Z,978.6
2022-08-07T00:10:25.583Z,978.8
2022-08-07T00:15:00.217Z,978.8
2022-08-07T00:20:03.386Z,979.3
2022-08-07T00:25:00.163Z,979.3
2022-08-07T00:30:00.187Z,979.7
2022-08-07T00:35:00.182Z,979.7
2022-08-07T00:40:00.372Z,979.7
2022-08-07T00:45:00.167Z,979.7
2022-08-07T00:50:19.536Z,980.1
2022-08-07T00:55:00.164Z,980.1
2022-08-07T01:00:00.229Z,980.1
2022-08-07T01:05:00.194Z,980.1
2022-08-07T01:10:06.945Z,980.1
2022-08-07T01:15:01.456Z,980.1
2022-08-07T01:20:00.193Z,980.1
2022-08-07T01:25:00.244Z,980.1
2022-08-07T01:30:00.629Z,980.1
2022-08-07T01:35:00.288Z,980.1
2022-08-07T01:40:00.302Z,980.1
2022-08-07T01:45:00.176Z,980.1
2022-08-07T01:50:00.610Z,980.4
2022-08-07T01:55:00.166Z,980.6
2022-08-07T02:00:00.177Z,980.6
2022-08-07T02:05:00.483Z,980.8
2022-08-07T02:10:00.562Z,981
2022-08-07T02:15:00.850Z,981
2022-08-07T02:20:04.109Z,981
2022-08-07T02:25:00.172Z,981
2022-08-07T02:30:00.170Z,981
2022-08-07T02:35:00.877Z,980.6
2022-08-07T02:40:11.746Z,980.8
2022-08-07T02:45:00.159Z,980.8
2022-08-07T02:50:00.533Z,980.8
2022-08-07T02:55:00.178Z,980.8
2022-08-07T03:00:01.361Z,981
2022-08-07T03:05:00.171Z,980.8
2022-08-07T03:10:00.184Z,981
2022-08-07T03:15:02.472Z,981
2022-08-07T03:20:00.183Z,980.8
2022-08-07T03:25:00.359Z,980.6
2022-08-07T03:30:00.177Z,980.4
2022-08-07T03:35:16.874Z,980.6
2022-08-07T03:40:14.859Z,980.6
2022-08-07T03:45:00.165Z,980.8
2022-08-07T03:50:00.184Z,980.4
2022-08-07T03:55:07.284Z,980.6
2022-08-07T04:00:02.823Z,980.6
2022-08-07T04:05:00.183Z,980.6
2022-08-07T04:10:02.164Z,980.6
2022-08-07T04:15:00.389Z,980.6
2022-08-07T04:20:00.171Z,980.6
2022-08-07T04:25:01.097Z,980.8
2022-08-07T04:30:01.990Z,981.2
2022-08-07T04:35:00.165Z,981.4
2022-08-07T04:40:00.349Z,981.2
2022-08-07T04:45:03.247Z,981.9
2022-08-07T04:50:03.997Z,981.9
2022-08-07T04:55:00.263Z,982.3
2022-08-07T05:00:13.113Z,982.3
2022-08-07T05:05:00.281Z,982.3
2022-08-07T05:10:00.703Z,982.1
2022-08-07T05:15:04.237Z,981.4
2022-08-07T05:20:00.207Z,981.7
2022-08-07T05:25:00.542Z,981.4
2022-08-07T05:30:00.180Z,981.4
2022-08-07T05:35:00.177Z,981.4
2022-08-07T05:40:14.398Z,981
2022-08-07T05:45:14.081Z,980.8
2022-08-07T05:50:00.179Z,981
2022-08-07T05:55:10.334Z,980.6
2022-08-07T06:00:00.281Z,980.6
2022-08-07T06:05:00.174Z,980.1
2022-08-07T06:10:05.718Z,980.6
2022-08-07T06:15:05.246Z,980.1
2022-08-07T06:20:04.411Z,979.9
2022-08-07T06:25:01.531Z,979.9
2022-08-07T06:30:00.181Z,979.7
2022-08-07T06:35:00.180Z,979.3
2022-08-07T06:40:17.162Z,979
2022-08-07T06:45:00.168Z,978.4
2022-08-07T06:50:00.171Z,978.2
2022-08-07T06:55:33.475Z,978.2
2022-08-07T07:00:11.356Z,977.7
2022-08-07T07:05:00.170Z,977.1
2022-08-07T07:10:00.187Z,976.7
2022-08-07T07:15:00.174Z,976.2
2022-08-07T07:20:00.184Z,975.8
2022-08-07T07:25:14.159Z,975.8
2022-08-07T07:30:09.939Z,975.4
2022-08-07T07:35:00.195Z,974.9
2022-08-07T07:40:00.176Z,974.9
2022-08-07T07:45:00.170Z,975.1
2022-08-07T07:50:34.645Z,974.5
2022-08-07T07:55:00.163Z,974.3
2022-08-07T08:00:00.178Z,974
2022-08-07T08:05:00.175Z,973.6
2022-08-07T08:10:05.359Z,972.3
2022-08-07T08:15:00.163Z,972.1
2022-08-07T08:20:17.367Z,972.3
2022-08-07T08:25:18.294Z,971.9
2022-08-07T08:30:02.815Z,972.5
2022-08-07T08:35:00.177Z,971.9
2022-08-07T08:40:00.366Z,970.8
2022-08-07T08:45:00.207Z,970.1
2022-08-07T08:50:04.718Z,968.8
2022-08-07T08:55:01.214Z,968.6
2022-08-07T09:00:00.289Z,967.7
2022-08-07T09:05:00.164Z,966.2
2022-08-07T09:10:03.310Z,965.8
2022-08-07T09:15:00.162Z,964.9
2022-08-07T09:20:00.199Z,964.5
2022-08-07T09:25:12.037Z,963.6
2022-08-07T09:30:04.955Z,961.9
2022-08-07T09:35:04.665Z,961.4
2022-08-07T09:40:00.326Z,961.9
2022-08-07T09:47:49.423Z,961.4
2022-08-07T09:50:19.277Z,962.7
2022-08-07T09:55:00.179Z,961
2022-08-07T10:00:01.540Z,961
2022-08-07T10:05:00.452Z,961
2022-08-07T10:10:02.869Z,960.1
2022-08-07T10:15:00.322Z,959.3
2022-08-07T10:20:00.262Z,958.4
2022-08-07T10:25:00.280Z,959.3
2022-08-07T10:30:00.186Z,960.1
2022-08-07T10:35:00.220Z,958.4
2022-08-07T10:40:05.166Z,959.5
2022-08-07T10:45:00.169Z,959.3
2022-08-07T10:50:00.183Z,957.5
2022-08-07T10:55:01.622Z,958.4
2022-08-07T11:00:00.162Z,957.5
2022-08-07T11:05:01.665Z,956.9
2022-08-07T11:10:08.576Z,957.7
2022-08-07T11:15:01.069Z,956.7
2022-08-07T11:20:00.174Z,956.2
2022-08-07T11:25:00.181Z,956.2
2022-08-07T11:30:17.863Z,955.1
2022-08-07T11:35:00.174Z,957.1
2022-08-07T11:40:03.402Z,953.8
2022-08-07T11:45:00.171Z,954
2022-08-07T11:50:30.486Z,954.5
2022-08-07T11:55:00.161Z,954.9
2022-08-07T12:00:11.220Z,952.3
2022-08-07T12:05:00.174Z,953.2
2022-08-07T12:10:02.139Z,953
2022-08-07T12:15:01.629Z,953
2022-08-07T12:20:06.362Z,952.5
2022-08-07T12:25:02.240Z,951.9
2022-08-07T12:30:00.178Z,951.9
2022-08-07T12:35:00.873Z,951.4
2022-08-07T12:40:00.232Z,951.4
2022-08-07T12:45:00.163Z,951.4
2022-08-07T12:50:05.151Z,952.3
2022-08-07T12:55:05.632Z,951.4
2022-08-07T13:00:00.180Z,952.3
2022-08-07T13:05:02.270Z,951.9
2022-08-07T13:10:19.372Z,952.3
2022-08-07T13:15:00.186Z,950.4
2022-08-07T13:20:00.173Z,950.6
2022-08-07T13:25:00.384Z,951.7
2022-08-07T13:30:00.177Z,951.4
2022-08-07T13:35:00.180Z,949.7
2022-08-07T13:40:36.404Z,950.1
2022-08-07T13:45:20.682Z,951.4
2022-08-07T13:50:33.870Z,951
2022-08-07T13:55:00.607Z,951.4
2022-08-07T14:00:00.297Z,950.1
2022-08-07T14:05:00.257Z,950.6
2022-08-07T14:10:02.634Z,950.1
2022-08-07T14:15:00.177Z,951
2022-08-07T14:20:42.160Z,951
2022-08-07T14:25:00.172Z,950.6
2022-08-07T14:30:09.844Z,951.4
2022-08-07T14:35:00.168Z,951.9
2022-08-07T14:40:15.654Z,950.6
2022-08-07T14:45:00.175Z,951.4
2022-08-07T14:50:00.308Z,949
2022-08-07T14:55:00.177Z,946.2
2022-08-07T15:05:01.674Z,946.2
2022-08-07T15:10:02.016Z,948.4
2022-08-07T15:15:00.174Z,948.6
2022-08-07T15:20:32.981Z,949.3
2022-08-07T15:25:13.686Z,949.7
2022-08-07T15:30:10.913Z,948.8
2022-08-07T15:35:00.183Z,949.7
2022-08-07T15:40:00.265Z,950.6
2022-08-07T15:45:00.204Z,951
2022-08-07T15:50:03.910Z,951
2022-08-07T15:55:02.456Z,951
2022-08-07T16:00:04.315Z,950.6
2022-08-07T16:05:00.204Z,950.1
2022-08-07T16:10:00.167Z,951
2022-08-07T16:15:00.225Z,951.9
2022-08-07T16:20:00.350Z,953
2022-08-07T16:25:00.283Z,951.2
2022-08-07T16:30:11.140Z,951.7
2022-08-07T16:35:00.226Z,951.4
2022-08-07T16:40:00.298Z,951.7
2022-08-07T16:45:14.940Z,952.1
2022-08-07T16:50:20.314Z,952.3
2022-08-07T16:55:00.189Z,951.9
2022-08-07T17:00:00.162Z,946.7
2022-08-07T17:05:00.190Z,944.7
2022-08-07T17:10:06.125Z,945.4
2022-08-07T17:15:00.162Z,948.4
2022-08-07T17:20:02.432Z,950.6
2022-08-07T17:25:00.201Z,951.2
2022-08-07T17:30:14.722Z,952.5
2022-08-07T17:35:49.720Z,953.6
2022-08-07T17:40:07.967Z,954.7
2022-08-07T17:45:00.182Z,954.7
2022-08-07T17:50:00.162Z,955.8
2022-08-07T17:55:00.184Z,955.6
2022-08-07T18:00:00.166Z,955.6
2022-08-07T18:05:00.185Z,956.9
2022-08-07T18:10:05.578Z,957.3
2022-08-07T18:15:00.164Z,958.6
2022-08-07T18:21:11.509Z,958.8
2022-08-07T18:25:00.165Z,959.7
2022-08-07T18:30:05.703Z,959.9
2022-08-07T18:35:01.651Z,959.7
2022-08-07T18:40:06.483Z,960.6
2022-08-07T18:45:44.319Z,960.6
2022-08-07T18:50:31.819Z,961.9
2022-08-07T18:55:08.423Z,962.3
2022-08-07T19:00:00.542Z,964.5
2022-08-07T19:05:15.121Z,965.8
2022-08-07T19:10:00.194Z,966.9
2022-08-07T19:15:00.590Z,968.4
2022-08-07T19:20:00.165Z,969.3
2022-08-07T19:25:06.274Z,970.1
2022-08-07T19:31:03.118Z,970.6
2022-08-07T19:35:00.183Z,971
2022-08-07T19:40:01.996Z,971.2
2022-08-07T19:45:00.714Z,971.4
2022-08-07T19:50:03.071Z,971.9
2022-08-07T19:55:00.171Z,971.4
2022-08-07T20:00:00.188Z,971.9
2022-08-07T20:05:00.380Z,972.3
2022-08-07T20:10:35.058Z,972.5
2022-08-07T20:15:00.171Z,972.7
2022-08-07T20:20:00.632Z,973.2
2022-08-07T20:25:00.205Z,973.6
2022-08-07T20:30:00.525Z,974.3
2022-08-07T20:35:00.166Z,974.7
2022-08-07T20:40:03.973Z,974.9
2022-08-07T20:45:00.206Z,975.4
2022-08-07T20:50:02.000Z,975.6
2022-08-07T20:55:00.340Z,976
2022-08-07T21:00:07.544Z,976
2022-08-07T21:05:00.281Z,975.8
2022-08-07T21:10:00.860Z,976
2022-08-07T21:15:00.900Z,975.8
2022-08-07T21:20:04.594Z,976.2
2022-08-07T21:25:00.163Z,976.4
2022-08-07T21:30:00.180Z,975.8
2022-08-07T21:35:00.164Z,976.4
2022-08-07T21:40:00.234Z,976.4
2022-08-07T21:45:00.186Z,976.7
2022-08-07T21:50:02.852Z,977.1
2022-08-07T21:55:00.180Z,977.5
2022-08-07T22:00:04.443Z,978
2022-08-07T22:05:00.181Z,978
2022-08-07T22:10:00.174Z,978
2022-08-07T22:15:00.596Z,978
2022-08-07T22:20:00.183Z,978
2022-08-07T22:25:00.164Z,977.7
2022-08-07T22:30:00.166Z,978
2022-08-07T22:35:00.181Z,978.4
2022-08-07T22:40:00.299Z,978.2
2022-08-07T22:45:00.178Z,978.6
2022-08-07T22:50:00.161Z,978.6
2022-08-07T22:55:00.177Z,978.8
2022-08-07T23:00:00.186Z,978.8
2022-08-07T23:06:10.293Z,978.8
2022-08-07T23:10:06.296Z,978.8
2022-08-07T23:15:00.171Z,978.8
2022-08-07T23:20:03.046Z,979.3
2022-08-07T23:25:00.179Z,979.3
2022-08-07T23:30:37.237Z,979.5
2022-08-07T23:35:01.080Z,979.3
2022-08-07T23:40:00.263Z,979.3
2022-08-07T23:45:00.178Z,979.3
2022-08-07T23:50:00.170Z,979.5
2022-08-07T23:55:00.186Z,979.3
